createdAt,value
2023-04-09T04:09:35.729Z,99.90
2023-04-09T04:13:43.143Z,99.90
2023-04-09T04:26:29.274Z,99.90
2023-04-09T04:33:12.886Z,99.90
2023-04-09T04:36:43.411Z,99.90
2023-04-09T04:44:06.351Z,99.90
2023-04-09T04:48:06.566Z,99.90
2023-04-09T04:51:15.445Z,99.90
2023-04-09T04:55:10.548Z,99.90
2023-04-09T05:02:06.781Z,99.90
2023-04-09T05:05:08.365Z,99.90
2023-04-09T05:12:04.301Z,99.90
2023-04-09T05:15:49.474Z,99.90
2023-04-09T05:19:22.882Z,99.90
2023-04-09T05:25:45.492Z,99.90
2023-04-09T05:32:20.749Z,99.90
2023-04-09T05:39:02.430Z,99.90
2023-04-09T05:42:45.061Z,99.90
2023-04-09T05:46:07.204Z,99.90
2023-04-09T05:49:39.047Z,99.90
2023-04-09T05:52:58.534Z,99.90
2023-04-09T07:00:18.805Z,99.90
2023-04-09T07:03:38.808Z,99.90
2023-04-09T07:10:10.391Z,99.90
2023-04-09T07:13:55.444Z,99.90
2023-04-09T07:21:16.377Z,99.90
2023-04-09T07:30:52.764Z,99.90
2023-04-09T07:34:38.107Z,99.90
2023-04-09T07:38:17.220Z,99.90
2023-04-09T07:41:36.344Z,99.90
2023-04-09T07:45:04.323Z,99.90
2023-04-09T07:48:25.754Z,99.90
2023-04-09T07:51:41.161Z,99.90
2023-04-09T07:55:52.317Z,99.90
2023-04-09T07:59:09.669Z,99.90
2023-04-09T09:03:03.645Z,99.90
2023-04-09T09:09:38.198Z,99.90
2023-04-09T09:36:24.940Z,99.90
2023-04-09T09:40:10.742Z,99.90
2023-04-09T09:43:17.151Z,99.90
2023-04-09T09:46:17.666Z,99.90
2023-04-09T09:54:05.366Z,99.90
2023-04-09T09:57:46.840Z,99.90
2023-04-09T10:04:25.469Z,99.90
2023-04-09T10:07:35.680Z,99.90
2023-04-09T10:31:24.276Z,99.90
2023-04-09T10:34:57.292Z,99.90
2023-04-09T10:38:49.271Z,99.90
2023-04-09T10:41:56.007Z,99.90
2023-04-09T10:48:33.702Z,99.90
2023-04-09T10:52:10.894Z,99.90
2023-04-09T10:58:48.708Z,99.90
2023-04-09T11:03:21.829Z,99.90
2023-04-09T11:06:54.389Z,99.90
2023-04-09T11:10:14.849Z,99.90
2023-04-09T11:13:37.387Z,99.90
2023-04-09T11:18:20.544Z,99.90
2023-04-09T11:21:16.493Z,99.90
2023-04-09T11:24:52.574Z,99.90
2023-04-09T11:28:23.379Z,99.90
2023-04-09T11:35:09.360Z,99.90
2023-04-09T11:39:12.318Z,99.90
2023-04-09T11:42:51.959Z,99.90
2023-04-09T11:46:20.852Z,99.90
2023-04-09T11:49:43.622Z,99.90
2023-04-09T11:53:06.698Z,99.90
2023-04-09T11:56:07.980Z,99.90
2023-04-09T12:06:20.984Z,98.90
2023-04-09T12:09:44.795Z,98.90
2023-04-09T12:13:08.234Z,98.30
2023-04-09T12:16:43.498Z,99.90
2023-04-09T12:20:18.680Z,97.90
2023-04-09T12:23:25.871Z,96.20
2023-04-09T12:26:41.948Z,96.70
2023-04-09T12:33:10.792Z,96.30
2023-04-09T12:36:55.588Z,96.30
2023-04-09T12:40:17.007Z,97.60
2023-04-09T12:46:59.134Z,97.30
2023-04-09T12:53:26.354Z,97.40
2023-04-09T13:00:46.689Z,94.50
2023-04-09T13:07:26.564Z,93.90
2023-04-09T13:11:08.064Z,95.60
2023-04-09T13:14:40.760Z,92.80
2023-04-09T13:21:48.961Z,88.90
2023-04-09T13:28:31.526Z,89.30
2023-04-09T13:35:43.289Z,84.10
2023-04-09T13:38:51.228Z,83.70
2023-04-09T13:42:14.180Z,89.50
2023-04-09T13:45:35.772Z,82.50
2023-04-09T13:49:35.961Z,85.30
2023-04-09T13:52:57.933Z,83.30
2023-04-09T13:56:10.939Z,83.10
2023-04-09T13:59:33.783Z,86.40
2023-04-09T14:02:33.726Z,84.00
2023-04-09T14:09:42.666Z,83.70
2023-04-09T14:13:02.876Z,87.00
2023-04-09T14:29:50.675Z,88.10
2023-04-09T14:33:07.780Z,92.10
2023-04-09T14:37:03.725Z,91.90
2023-04-09T14:39:56.162Z,93.50
2023-04-09T14:43:07.736Z,92.20
2023-04-09T14:46:51.795Z,89.70
2023-04-09T14:50:18.018Z,90.30
2023-04-09T14:53:32.032Z,90.80
2023-04-09T14:57:00.869Z,91.20
2023-04-09T15:00:19.470Z,91.90
2023-04-09T15:03:28.260Z,91.20
2023-04-09T15:06:53.878Z,90.80
2023-04-09T15:10:07.584Z,91.90
2023-04-09T15:13:58.799Z,91.90
2023-04-09T15:21:04.149Z,91.30
2023-04-09T15:24:21.465Z,87.50
2023-04-09T15:27:51.789Z,88.70
2023-04-09T15:34:27.165Z,83.70
2023-04-09T15:41:50.573Z,85.50
2023-04-09T15:45:04.210Z,87.00
2023-04-09T15:48:34.096Z,86.30
2023-04-09T15:55:23.079Z,86.20
2023-04-09T16:02:26.064Z,84.10
2023-04-09T16:05:53.918Z,83.30
2023-04-09T16:08:49.419Z,87.00
2023-04-09T16:12:25.324Z,83.90
2023-04-09T16:26:02.543Z,89.40
2023-04-09T16:29:34.476Z,90.20
2023-04-09T16:32:40.705Z,89.60
2023-04-09T16:36:18.600Z,90.90
2023-04-09T16:39:51.701Z,91.00
2023-04-09T16:43:08.138Z,91.60
2023-04-09T16:49:45.832Z,91.50
2023-04-09T17:06:15.730Z,93.10
2023-04-09T17:09:35.839Z,94.40
2023-04-09T17:13:05.645Z,95.00
2023-04-09T17:20:08.404Z,95.80
2023-04-09T17:24:04.017Z,97.60
2023-04-09T17:27:18.283Z,98.60
2023-04-09T17:37:15.246Z,99.90
2023-04-09T17:53:18.843Z,99.90
2023-04-09T17:54:07.123Z,99.90
2023-04-09T17:57:59.453Z,99.90
2023-04-09T18:05:13.391Z,99.90
2023-04-09T18:08:10.616Z,99.90
2023-04-09T18:11:33.321Z,99.90
2023-04-09T18:14:43.873Z,99.90
2023-04-09T18:21:48.319Z,99.90
2023-04-09T18:28:26.653Z,99.90
2023-04-09T18:35:33.546Z,99.90
2023-04-09T18:38:49.254Z,99.90
2023-04-09T18:42:37.838Z,99.90
2023-04-09T18:46:08.761Z,99.90
2023-04-09T18:49:26.601Z,99.90
2023-04-09T18:52:48.932Z,99.90
2023-04-09T18:59:40.934Z,99.90
2023-04-09T19:06:20.457Z,99.90
2023-04-09T19:09:43.656Z,99.90
2023-04-09T19:13:30.333Z,99.90
2023-04-09T19:17:03.545Z,99.90
2023-04-09T19:20:23.870Z,99.90
2023-04-09T19:23:54.952Z,99.90
2023-04-09T19:27:44.776Z,99.90
2023-04-09T19:34:39.433Z,99.90
2023-04-09T19:37:53.535Z,99.90
2023-04-09T19:44:34.149Z,99.90
2023-04-09T19:47:56.871Z,99.90
2023-04-09T19:54:12.385Z,99.90
2023-04-09T19:55:07.405Z,99.90
2023-04-09T19:58:37.543Z,99.90
2023-04-09T20:02:18.534Z,99.90
2023-04-09T20:06:16.686Z,99.90
2023-04-09T20:09:24.294Z,99.90
2023-04-09T20:13:24.147Z,99.90
2023-04-09T20:17:01.776Z,99.90
2023-04-09T20:20:09.557Z,99.90
2023-04-09T20:23:31.529Z,99.90
2023-04-09T20:27:05.802Z,99.90
2023-04-09T20:30:12.819Z,99.90
2023-04-09T20:33:22.206Z,99.90
2023-04-09T20:40:14.392Z,99.90
2023-04-09T20:44:08.743Z,99.90
2023-04-09T20:47:55.274Z,99.90
2023-04-09T20:51:03.129Z,99.90
2023-04-09T20:54:12.629Z,99.90
2023-04-09T20:57:43.185Z,99.90
2023-04-09T21:01:13.943Z,99.90
2023-04-09T21:04:38.973Z,99.90
2023-04-09T21:08:28.479Z,99.90
2023-04-09T21:11:48.345Z,99.90
2023-04-09T21:19:13.756Z,99.90
2023-04-09T21:26:35.832Z,99.90
2023-04-09T21:30:20.896Z,99.90
2023-04-09T21:33:47.522Z,99.90
2023-04-09T21:37:28.099Z,99.90
2023-04-09T21:40:55.062Z,99.90
2023-04-09T21:44:18.439Z,99.90
2023-04-09T21:50:46.395Z,99.90
2023-04-09T21:54:15.036Z,99.90
2023-04-09T21:58:06.857Z,99.90
2023-04-09T22:01:39.421Z,99.90
2023-04-09T22:11:37.408Z,99.90
2023-04-09T22:15:33.038Z,99.90
2023-04-09T22:18:55.152Z,99.90
2023-04-09T22:25:19.406Z,99.90
2023-04-09T22:29:01.025Z,99.90
2023-04-09T22:35:37.033Z,99.90
2023-04-09T22:39:25.955Z,99.90
2023-04-09T22:42:58.965Z,99.90
2023-04-09T22:49:58.123Z,99.90
2023-04-09T22:53:08.310Z,99.90
2023-04-09T22:56:15.685Z,99.90
2023-04-09T22:59:33.772Z,99.90
2023-04-09T23:11:15.214Z,99.90
2023-04-09T23:15:34.539Z,99.90
2023-04-09T23:19:07.010Z,99.90
2023-04-09T23:22:34.648Z,99.90
2023-04-09T23:26:03.058Z,99.90
2023-04-09T23:29:22.599Z,99.90
2023-04-09T23:32:40.672Z,99.90
2023-04-09T23:36:40.653Z,99.90
2023-04-09T23:39:59.980Z,99.90
2023-04-09T23:46:31.654Z,99.90
2023-04-09T23:50:01.753Z,99.90
2023-04-09T23:57:10.562Z,99.90
